createdAt,value
2023-03-15T00:02:28.842Z,57.25
2023-03-15T00:05:05.933Z,57.67
2023-03-15T00:07:40.113Z,57.25
2023-03-15T00:10:58.093Z,58.18
2023-03-15T00:14:05.499Z,57.42
2023-03-15T00:16:36.861Z,57.52
2023-03-15T00:19:10.957Z,57.63
2023-03-15T00:21:46.266Z,57.22
2023-03-15T00:24:20.165Z,57.01
2023-03-15T00:26:51.648Z,58.03
2023-03-15T00:29:43.040Z,57.29
2023-03-15T00:33:14.253Z,57.46
2023-03-15T00:36:43.761Z,59.11
2023-03-15T00:39:40.714Z,57.29
2023-03-15T00:42:24.275Z,57.44
2023-03-15T00:44:58.357Z,57.72
2023-03-15T00:47:36.186Z,57.14
2023-03-15T00:50:30.305Z,56.83
2023-03-15T00:53:08.723Z,57.08
2023-03-15T00:56:25.283Z,57.90
2023-03-15T01:00:00.214Z,58.11
2023-03-15T01:03:07.453Z,56.98
2023-03-15T01:05:54.062Z,56.95
2023-03-15T01:08:24.303Z,56.68
2023-03-15T01:10:58.144Z,56.83
2023-03-15T01:13:38.660Z,56.76
2023-03-15T01:16:15.388Z,56.57
2023-03-15T01:19:17.441Z,56.96
2023-03-15T01:21:53.380Z,57.78
2023-03-15T01:25:09.417Z,58.00
2023-03-15T01:28:06.080Z,57.81
2023-03-15T01:30:49.807Z,56.77
2023-03-15T01:33:29.199Z,57.33
2023-03-15T01:36:22.452Z,57.29
2023-03-15T01:39:12.929Z,56.94
2023-03-15T01:42:25.741Z,57.16
2023-03-15T01:45:01.250Z,57.09
2023-03-15T01:47:42.885Z,57.29
2023-03-15T01:50:55.404Z,58.70
2023-03-15T01:53:45.267Z,58.93
2023-03-15T01:56:29.510Z,58.10
2023-03-15T01:59:29.854Z,57.19
2023-03-15T02:02:34.717Z,58.00
2023-03-15T02:05:58.877Z,57.70
2023-03-15T02:09:20.319Z,56.81
2023-03-15T02:12:42.423Z,56.66
2023-03-15T02:15:30.362Z,57.63
2023-03-15T02:18:19.430Z,59.67
2023-03-15T02:21:37.376Z,60.54
2023-03-15T02:24:24.913Z,58.93
2023-03-15T02:27:14.475Z,58.01
2023-03-15T02:29:49.131Z,57.67
2023-03-15T02:32:31.758Z,58.24
2023-03-15T02:36:02.385Z,58.26
2023-03-15T02:38:56.081Z,57.55
2023-03-15T02:41:56.271Z,57.18
2023-03-15T02:44:36.157Z,57.10
2023-03-15T02:47:21.000Z,57.05
2023-03-15T02:50:13.186Z,56.88
2023-03-15T02:52:44.384Z,57.03
2023-03-15T02:55:23.180Z,56.93
2023-03-15T02:57:57.417Z,56.75
2023-03-15T03:00:29.185Z,56.65
2023-03-15T03:03:11.091Z,56.90
2023-03-15T03:05:45.269Z,56.78
2023-03-15T03:08:23.136Z,57.09
2023-03-15T03:11:11.489Z,56.83
2023-03-15T03:13:46.663Z,57.18
2023-03-15T03:16:27.425Z,57.32
2023-03-15T03:19:15.293Z,57.51
2023-03-15T03:21:55.272Z,57.46
2023-03-15T03:24:46.002Z,57.36
2023-03-15T03:28:18.294Z,58.34
2023-03-15T03:30:58.607Z,59.46
2023-03-15T03:34:33.667Z,57.56
2023-03-15T03:37:58.880Z,57.73
2023-03-15T03:41:38.468Z,57.81
2023-03-15T03:44:35.202Z,59.10
2023-03-15T03:47:16.918Z,59.19
2023-03-15T03:49:50.133Z,57.97
2023-03-15T03:52:24.151Z,58.46
2023-03-15T03:55:07.580Z,59.80
2023-03-15T03:57:39.259Z,59.91
2023-03-15T04:00:40.311Z,61.22
2023-03-15T04:03:10.002Z,59.51
2023-03-15T04:05:57.057Z,58.35
2023-03-15T04:08:34.182Z,58.22
2023-03-15T04:12:08.591Z,59.19
2023-03-15T04:15:01.726Z,58.78
2023-03-15T04:17:39.641Z,58.99
2023-03-15T04:20:11.885Z,58.78
2023-03-15T04:22:51.281Z,59.14
2023-03-15T04:25:42.083Z,58.56
2023-03-15T04:28:27.337Z,59.49
2023-03-15T04:31:03.528Z,59.38
2023-03-15T04:34:15.885Z,60.92
2023-03-15T04:37:42.457Z,60.86
2023-03-15T04:41:07.353Z,62.12
2023-03-15T04:44:17.103Z,62.57
2023-03-15T04:47:28.257Z,62.07
2023-03-15T04:50:29.765Z,61.77
2023-03-15T04:53:33.112Z,61.26
2023-03-15T04:57:18.050Z,62.88
2023-03-15T05:00:10.191Z,61.45
2023-03-15T05:03:39.471Z,61.05
2023-03-15T05:07:17.120Z,61.04
2023-03-15T05:10:53.969Z,60.98
2023-03-15T05:14:18.730Z,61.76
2023-03-15T05:17:44.001Z,62.01
2023-03-15T05:21:03.377Z,60.64
2023-03-15T05:24:04.293Z,60.68
2023-03-15T05:27:39.836Z,59.17
2023-03-15T05:30:34.683Z,59.61
2023-03-15T05:33:26.592Z,58.51
2023-03-15T05:36:17.593Z,58.08
2023-03-15T05:39:39.352Z,57.81
2023-03-15T05:42:57.174Z,57.86
2023-03-15T05:45:39.493Z,57.63
2023-03-15T05:48:53.910Z,58.20
2023-03-15T05:52:21.135Z,59.71
2023-03-15T05:55:33.251Z,59.96
2023-03-15T05:59:30.624Z,58.72
2023-03-15T06:02:47.792Z,57.24
2023-03-15T06:05:46.176Z,56.92
2023-03-15T06:08:20.595Z,56.28
2023-03-15T06:10:55.277Z,57.09
2023-03-15T06:13:26.128Z,55.68
2023-03-15T06:15:57.869Z,55.14
2023-03-15T06:18:46.477Z,55.33
2023-03-15T06:21:18.225Z,55.97
2023-03-15T06:23:57.122Z,56.09
2023-03-15T06:26:27.940Z,55.39
2023-03-15T06:29:05.854Z,56.11
2023-03-15T06:31:34.675Z,56.32
2023-03-15T06:34:05.584Z,56.44
2023-03-15T06:36:35.183Z,56.53
2023-03-15T06:39:04.628Z,56.25
2023-03-15T06:41:33.616Z,55.92
2023-03-15T06:44:09.110Z,55.31
2023-03-15T06:46:41.540Z,53.88
2023-03-15T06:49:13.362Z,52.33
2023-03-15T06:51:53.446Z,49.87
2023-03-15T06:54:24.351Z,48.58
2023-03-15T06:56:53.080Z,49.71
2023-03-15T06:59:24.832Z,51.01
2023-03-15T07:01:53.494Z,52.06
2023-03-15T07:04:22.249Z,49.12
2023-03-15T07:06:50.813Z,49.17
2023-03-15T07:09:19.299Z,50.29
2023-03-15T07:11:47.892Z,46.75
2023-03-15T07:14:16.318Z,45.61
2023-03-15T07:16:44.867Z,42.52
2023-03-15T07:19:13.448Z,44.87
2023-03-15T07:21:41.871Z,44.36
2023-03-15T07:24:10.375Z,45.56
2023-03-15T07:26:38.852Z,43.88
2023-03-15T07:29:16.365Z,44.99
2023-03-15T07:31:44.649Z,44.24
2023-03-15T07:34:22.386Z,40.37
2023-03-15T07:36:51.374Z,40.75
2023-03-15T07:39:19.812Z,38.91
2023-03-15T07:41:48.222Z,41.14
2023-03-15T07:44:23.014Z,37.16
2023-03-15T07:46:51.922Z,35.68
2023-03-15T07:49:20.264Z,36.36
2023-03-15T07:51:48.704Z,37.13
2023-03-15T07:54:17.097Z,36.24
2023-03-15T07:56:45.361Z,36.42
2023-03-15T07:59:13.954Z,34.62
2023-03-15T08:01:42.292Z,31.60
2023-03-15T08:04:11.001Z,32.95
2023-03-15T08:06:39.369Z,31.41
2023-03-15T08:09:07.580Z,30.37
2023-03-15T08:14:09.070Z,27.72
2023-03-15T08:16:37.516Z,30.21
2023-03-15T08:19:05.924Z,30.19
2023-03-15T08:21:34.256Z,28.89
2023-03-15T08:24:02.691Z,26.07
2023-03-15T08:26:30.895Z,25.87
2023-03-15T08:28:59.063Z,27.64
2023-03-15T08:31:27.322Z,25.53
2023-03-15T08:33:55.623Z,25.13
2023-03-15T08:36:24.082Z,23.70
2023-03-15T08:38:55.593Z,25.74
2023-03-15T08:41:24.087Z,25.19
2023-03-15T08:43:52.295Z,25.13
2023-03-15T08:46:22.191Z,24.22
2023-03-15T08:48:50.947Z,24.11
2023-03-15T08:51:20.135Z,23.38
2023-03-15T08:53:48.532Z,23.72
2023-03-15T08:56:20.411Z,23.35
2023-03-15T08:58:48.959Z,22.88
2023-03-15T09:01:17.670Z,23.64
2023-03-15T09:03:45.920Z,23.42
2023-03-15T09:06:14.475Z,22.72
2023-03-15T09:08:42.661Z,24.99
2023-03-15T09:11:10.967Z,24.44
2023-03-15T09:13:39.486Z,23.95
2023-03-15T09:16:08.053Z,24.12
2023-03-15T09:18:36.444Z,24.69
2023-03-15T09:21:05.575Z,25.06
2023-03-15T09:23:34.013Z,24.81
2023-03-15T09:26:03.271Z,24.20
2023-03-15T09:28:31.558Z,23.44
2023-03-15T09:31:00.224Z,23.66
2023-03-15T09:33:28.658Z,23.98
2023-03-15T09:35:57.032Z,25.28
2023-03-15T09:38:25.463Z,25.14
2023-03-15T09:40:58.617Z,24.64
2023-03-15T09:43:43.756Z,24.50
2023-03-15T09:46:53.692Z,24.79
2023-03-15T09:49:39.703Z,24.51
2023-03-15T09:52:27.726Z,24.92
2023-03-15T09:55:13.367Z,24.92
2023-03-15T09:57:53.367Z,25.38
2023-03-15T10:00:44.453Z,24.37
2023-03-15T10:03:31.747Z,24.46
2023-03-15T10:06:06.232Z,24.70
2023-03-15T10:08:34.626Z,25.87
2023-03-15T10:11:27.336Z,26.24
2023-03-15T10:14:28.242Z,25.12
2023-03-15T10:16:56.413Z,25.63
2023-03-15T10:19:40.262Z,25.97
2023-03-15T10:22:14.779Z,26.00
2023-03-15T10:24:59.779Z,25.61
2023-03-15T10:27:52.491Z,25.02
2023-03-15T10:30:24.404Z,25.57
2023-03-15T10:33:12.801Z,25.49
2023-03-15T10:35:43.031Z,25.38
2023-03-15T10:38:15.741Z,25.27
2023-03-15T10:40:45.606Z,24.48
2023-03-15T10:43:23.140Z,23.09
2023-03-15T10:46:13.617Z,21.74
2023-03-15T10:49:09.722Z,24.36
2023-03-15T10:51:43.881Z,24.04
2023-03-15T10:54:18.662Z,23.46
2023-03-15T10:56:48.923Z,22.43
2023-03-15T10:59:24.446Z,23.17
2023-03-15T11:02:01.902Z,23.89
2023-03-15T11:04:33.819Z,23.59
2023-03-15T11:07:04.212Z,23.76
2023-03-15T11:09:44.189Z,23.89
2023-03-15T11:12:25.500Z,24.51
2023-03-15T11:15:17.851Z,24.34
2023-03-15T11:17:49.374Z,23.51
2023-03-15T11:20:20.688Z,24.63
2023-03-15T11:22:51.380Z,24.13
2023-03-15T11:25:24.973Z,24.31
2023-03-15T11:27:53.889Z,24.73
2023-03-15T11:30:29.054Z,23.87
2023-03-15T11:33:05.859Z,24.71
2023-03-15T11:35:48.720Z,24.42
2023-03-15T11:38:39.513Z,24.16
2023-03-15T11:41:41.289Z,24.01
2023-03-15T11:44:28.659Z,23.49
2023-03-15T11:47:17.943Z,23.69
2023-03-15T11:49:53.441Z,24.03
2023-03-15T11:52:27.817Z,23.56
2023-03-15T11:55:01.592Z,23.56
2023-03-15T11:57:30.743Z,23.94
2023-03-15T12:00:16.714Z,23.04
2023-03-15T12:02:57.484Z,23.56
2023-03-15T12:05:49.507Z,23.88
2023-03-15T12:08:20.462Z,23.74
2023-03-15T12:10:50.787Z,24.13
2023-03-15T12:13:23.937Z,24.40
2023-03-15T12:15:53.371Z,24.87
2023-03-15T12:18:27.267Z,24.07
2023-03-15T12:21:12.148Z,23.62
2023-03-15T12:23:44.774Z,23.73
2023-03-15T12:26:22.337Z,23.56
2023-03-15T12:29:02.170Z,23.75
2023-03-15T12:31:55.305Z,23.78
2023-03-15T12:34:31.921Z,24.50
2023-03-15T12:37:06.731Z,24.33
2023-03-15T12:39:51.310Z,24.30
2023-03-15T12:42:31.696Z,24.00
2023-03-15T12:45:43.719Z,23.42
2023-03-15T12:48:13.009Z,23.47
2023-03-15T12:50:44.307Z,23.94
2023-03-15T12:53:30.893Z,24.73
2023-03-15T12:56:11.685Z,24.41
2023-03-15T12:58:41.978Z,24.84
2023-03-15T13:01:16.382Z,25.15
2023-03-15T13:03:44.847Z,24.67
2023-03-15T13:06:30.989Z,24.17
2023-03-15T13:09:34.143Z,24.16
2023-03-15T13:12:22.252Z,25.41
2023-03-15T13:15:17.318Z,24.91
2023-03-15T13:17:50.909Z,25.68
2023-03-15T13:20:31.425Z,25.91
2023-03-15T13:23:28.636Z,27.77
2023-03-15T13:26:27.635Z,28.60
2023-03-15T13:28:58.786Z,29.66
2023-03-15T13:31:31.503Z,30.36
2023-03-15T13:34:25.357Z,30.84
2023-03-15T13:36:59.243Z,31.37
2023-03-15T13:39:33.347Z,31.87
2023-03-15T13:42:04.727Z,32.31
2023-03-15T13:44:34.200Z,34.01
2023-03-15T13:47:02.831Z,33.51
2023-03-15T13:49:33.286Z,33.17
2023-03-15T13:52:12.198Z,34.31
2023-03-15T13:54:42.203Z,34.63
2023-03-15T13:57:16.843Z,35.18
2023-03-15T14:00:00.647Z,35.30
2023-03-15T14:02:51.657Z,35.54
2023-03-15T14:05:33.084Z,36.97
2023-03-15T14:08:06.165Z,37.27
2023-03-15T14:10:38.802Z,37.87
2023-03-15T14:13:16.862Z,38.58
2023-03-15T14:15:47.399Z,38.40
2023-03-15T14:18:18.996Z,37.41
2023-03-15T14:21:00.055Z,37.37
2023-03-15T14:23:30.003Z,37.23
2023-03-15T14:26:03.887Z,37.60
2023-03-15T14:28:33.344Z,37.53
2023-03-15T14:31:02.859Z,38.09
2023-03-15T14:33:39.768Z,38.69
2023-03-15T14:36:23.109Z,39.73
2023-03-15T14:38:54.109Z,38.32
2023-03-15T14:41:28.399Z,38.43
2023-03-15T14:43:57.088Z,38.94
2023-03-15T14:46:25.617Z,38.61
2023-03-15T14:48:54.033Z,39.04
2023-03-15T14:51:28.462Z,39.36
2023-03-15T14:53:59.412Z,39.38
2023-03-15T14:56:28.050Z,39.87
2023-03-15T14:58:56.689Z,40.72
2023-03-15T15:01:27.631Z,40.44
2023-03-15T15:04:06.136Z,40.86
2023-03-15T15:06:51.788Z,42.01
2023-03-15T15:09:25.850Z,41.82
2023-03-15T15:11:54.980Z,42.09
2023-03-15T15:14:23.434Z,41.89
2023-03-15T15:16:52.441Z,43.13
2023-03-15T15:19:23.495Z,43.95
2023-03-15T15:21:54.996Z,44.51
2023-03-15T15:24:42.585Z,45.24
2023-03-15T15:27:12.105Z,45.61
2023-03-15T15:29:42.916Z,46.03
2023-03-15T15:32:11.730Z,45.75
2023-03-15T15:34:42.801Z,45.51
2023-03-15T15:37:25.118Z,47.38
2023-03-15T15:40:10.503Z,47.11
2023-03-15T15:42:42.247Z,47.43
2023-03-15T15:45:37.913Z,48.16
2023-03-15T15:48:32.296Z,47.17
2023-03-15T15:51:31.903Z,47.92
2023-03-15T15:54:02.173Z,48.84
2023-03-15T15:56:57.507Z,49.59
2023-03-15T15:59:36.928Z,49.41
2023-03-15T16:02:22.303Z,49.93
2023-03-15T16:04:51.520Z,50.01
2023-03-15T16:07:23.263Z,51.63
2023-03-15T16:10:46.501Z,51.01
2023-03-15T16:14:26.744Z,51.05
2023-03-15T16:17:22.108Z,51.27
2023-03-15T16:19:52.040Z,50.71
2023-03-15T16:22:27.712Z,50.58
2023-03-15T16:25:01.743Z,51.86
2023-03-15T16:27:30.757Z,51.30
2023-03-15T16:29:59.686Z,52.85
2023-03-15T16:32:42.776Z,52.76
2023-03-15T16:35:35.397Z,55.11
2023-03-15T16:38:25.388Z,53.99
2023-03-15T16:41:29.970Z,53.56
2023-03-15T16:44:03.225Z,55.14
2023-03-15T16:46:54.816Z,53.90
2023-03-15T16:49:23.437Z,53.22
2023-03-15T16:51:59.534Z,54.09
2023-03-15T16:54:41.048Z,54.93
2023-03-15T16:57:17.049Z,53.72
2023-03-15T16:59:49.577Z,53.20
2023-03-15T17:02:22.799Z,53.20
2023-03-15T17:04:53.105Z,54.45
2023-03-15T17:07:31.688Z,55.41
2023-03-15T17:10:15.455Z,54.62
2023-03-15T17:13:04.363Z,54.74
2023-03-15T17:15:41.393Z,54.50
2023-03-15T17:18:24.201Z,55.00
2023-03-15T17:21:36.260Z,56.74
2023-03-15T17:24:12.940Z,55.33
2023-03-15T17:27:22.810Z,56.09
2023-03-15T17:29:51.542Z,56.77
2023-03-15T17:32:29.519Z,54.86
2023-03-15T17:34:59.202Z,55.22
2023-03-15T17:37:44.925Z,56.63
2023-03-15T17:40:40.924Z,56.33
2023-03-15T17:44:05.931Z,56.79
2023-03-15T17:47:35.430Z,55.86
2023-03-15T17:50:23.971Z,56.49
2023-03-15T17:53:03.210Z,56.77
2023-03-15T17:55:35.599Z,55.47
2023-03-15T17:58:12.015Z,55.50
2023-03-15T18:00:42.228Z,56.05
2023-03-15T18:03:16.082Z,55.41
2023-03-15T18:05:45.503Z,56.29
2023-03-15T18:08:19.052Z,57.03
2023-03-15T18:10:58.140Z,56.37
2023-03-15T18:13:56.059Z,56.30
2023-03-15T18:16:25.354Z,56.65
2023-03-15T18:18:54.053Z,57.63
2023-03-15T18:21:45.483Z,56.72
2023-03-15T18:24:34.669Z,57.07
2023-03-15T18:27:18.086Z,58.16
2023-03-15T18:29:49.335Z,57.28
2023-03-15T18:32:20.665Z,57.91
2023-03-15T18:35:18.230Z,56.06
2023-03-15T18:38:18.399Z,55.58
2023-03-15T18:40:47.031Z,56.16
2023-03-15T18:43:20.608Z,56.29
2023-03-15T18:46:08.392Z,56.52
2023-03-15T18:48:41.065Z,56.03
2023-03-15T18:51:17.504Z,56.08
2023-03-15T18:53:46.410Z,56.26
2023-03-15T18:56:26.939Z,56.95
2023-03-15T18:58:55.911Z,57.03
2023-03-15T19:01:24.850Z,57.07
2023-03-15T19:03:54.954Z,57.50
2023-03-15T19:06:23.796Z,57.15
2023-03-15T19:09:10.084Z,58.34
2023-03-15T19:12:18.220Z,58.39
2023-03-15T19:14:54.766Z,57.34
2023-03-15T19:17:44.046Z,58.46
2023-03-15T19:20:28.262Z,58.07
2023-03-15T19:23:27.575Z,58.22
2023-03-15T19:26:23.080Z,58.58
2023-03-15T19:29:23.316Z,57.18
2023-03-15T19:32:02.479Z,56.88
2023-03-15T19:34:31.861Z,56.07
2023-03-15T19:37:01.362Z,56.60
2023-03-15T19:39:32.844Z,56.39
2023-03-15T19:42:05.070Z,56.62
2023-03-15T19:44:36.277Z,57.36
2023-03-15T19:47:30.455Z,57.10
2023-03-15T19:50:02.290Z,56.93
2023-03-15T19:52:36.737Z,57.10
2023-03-15T19:55:41.080Z,57.72
2023-03-15T19:58:19.202Z,57.17
2023-03-15T20:00:54.340Z,56.97
2023-03-15T20:03:29.273Z,57.73
2023-03-15T20:06:15.019Z,57.44
2023-03-15T20:08:51.769Z,57.55
2023-03-15T20:11:39.421Z,57.15
2023-03-15T20:14:28.185Z,57.17
2023-03-15T20:18:00.135Z,58.15
2023-03-15T20:20:51.753Z,57.10
2023-03-15T20:23:33.568Z,57.91
2023-03-15T20:26:10.937Z,58.18
2023-03-15T20:29:03.593Z,59.18
2023-03-15T20:31:32.199Z,57.83
2023-03-15T20:34:00.838Z,58.45
2023-03-15T20:36:33.580Z,59.69
2023-03-15T20:39:05.557Z,59.27
2023-03-15T20:41:38.619Z,58.70
2023-03-15T20:44:07.814Z,60.54
2023-03-15T20:46:47.416Z,59.08
2023-03-15T20:49:18.318Z,59.33
2023-03-15T20:51:50.256Z,60.52
2023-03-15T20:54:33.179Z,59.28
2023-03-15T20:57:27.177Z,59.05
2023-03-15T21:00:21.116Z,60.03
2023-03-15T21:02:53.051Z,60.49
2023-03-15T21:05:39.527Z,62.27
2023-03-15T21:08:08.627Z,61.09
2023-03-15T21:10:44.349Z,60.36
2023-03-15T21:13:16.818Z,60.67
2023-03-15T21:15:46.173Z,59.83
2023-03-15T21:18:19.712Z,58.88
2023-03-15T21:21:10.624Z,59.39
2023-03-15T21:24:08.622Z,60.39
2023-03-15T21:27:06.373Z,61.19
2023-03-15T21:29:48.197Z,60.14
2023-03-15T21:32:20.266Z,60.58
2023-03-15T21:35:01.305Z,59.84
2023-03-15T21:37:30.233Z,60.11
2023-03-15T21:40:03.557Z,60.93
2023-03-15T21:42:37.232Z,61.11
2023-03-15T21:45:09.194Z,61.60
2023-03-15T21:47:40.937Z,61.45
2023-03-15T21:50:23.947Z,61.06
2023-03-15T21:52:56.100Z,60.68
2023-03-15T21:55:27.686Z,60.23
2023-03-15T21:58:05.504Z,61.17
2023-03-15T22:00:36.861Z,61.53
2023-03-15T22:03:25.141Z,61.36
2023-03-15T22:05:54.026Z,60.71
2023-03-15T22:08:44.834Z,60.19
2023-03-15T22:11:16.108Z,60.12
2023-03-15T22:13:47.756Z,61.16
2023-03-15T22:16:19.470Z,61.64
2023-03-15T22:19:11.135Z,62.77
2023-03-15T22:22:02.864Z,64.35
2023-03-15T22:24:51.643Z,63.79
2023-03-15T22:27:45.778Z,64.56
2023-03-15T22:30:28.325Z,64.99
2023-03-15T22:33:08.808Z,63.96
2023-03-15T22:36:03.739Z,64.50
2023-03-15T22:38:51.813Z,62.75
2023-03-15T22:41:24.228Z,63.12
2023-03-15T22:43:55.677Z,61.95
2023-03-15T22:46:42.150Z,62.03
2023-03-15T22:49:16.486Z,62.10
2023-03-15T22:52:11.356Z,63.42
2023-03-15T22:54:52.218Z,63.74
2023-03-15T22:57:21.098Z,65.00
2023-03-15T23:00:12.282Z,66.21
2023-03-15T23:02:48.648Z,65.87
2023-03-15T23:05:24.829Z,66.46
2023-03-15T23:07:56.667Z,65.41
2023-03-15T23:10:48.515Z,67.59
2023-03-15T23:13:22.670Z,67.26
2023-03-15T23:15:59.369Z,68.78
2023-03-15T23:19:25.003Z,67.61
2023-03-15T23:22:16.232Z,67.88
2023-03-15T23:24:53.146Z,67.71
2023-03-15T23:27:31.056Z,67.91
2023-03-15T23:30:08.704Z,68.38
2023-03-15T23:32:46.940Z,67.75
2023-03-15T23:35:24.757Z,68.36
2023-03-15T23:38:00.672Z,67.89
2023-03-15T23:40:53.760Z,67.64
2023-03-15T23:44:08.300Z,69.42
2023-03-15T23:47:05.036Z,68.55
2023-03-15T23:49:38.517Z,67.77
2023-03-15T23:52:25.632Z,68.56
2023-03-15T23:54:57.516Z,69.57
2023-03-15T23:57:36.004Z,68.70
